Time;durP1;ratioP1;P1;durP2;ratioP2;P2;SDS_P1;SDS_P2;PMS_P1;PMS_P2;Temp;Humidity;BMP_temperature;BMP_pressure;BME280_temperature;BME280_humidity;BME280_pressure;Samples;Min_cycle;Max_cycle;Signal;HPM_P1;HPM_P2
2022/04/26 03:37:50;;;;;;;;;;;;;;;10.98;63.01;97517.06;4987862;28;20375;-71
2022/04/26 03:40:42;;;;;;;;;;;;;;;11.09;62.78;97520.22;4983559;28;19941;-71
2022/04/26 03:43:12;;;;;;;;;;;;;;;11.22;63.67;97523.84;4989994;28;20411;-70
2022/04/26 03:46:06;;;;;;;;;;;;;;;10.85;64.89;97523.47;4989981;28;20415;-71
2022/04/26 03:48:34;;;;;;;;;;;;;;;10.52;66.26;97514.22;4988573;28;19953;-71
2022/04/26 03:51:02;;;;;;;;;;;;;;;10.33;67.34;97525.41;4991063;28;19926;-72
2022/04/26 03:53:29;;;;;;;;;;;;;;;10.23;67.47;97519.19;4973819;28;19925;-71
2022/04/26 03:55:57;;;;;;;;;;;;;;;10.12;68.27;97522.47;4969770;28;20389;-71
2022/04/26 03:58:28;;;;;;;;;;;;;;;10.11;68.18;97518.16;4969587;28;19933;-71
2022/04/26 04:00:56;;;;;;;;;;;;;;;10.15;67.96;97525.34;4968354;28;20376;-71
2022/04/26 04:06:23;;;;;;;;;;;;;;;10.34;67.29;97519.66;4970987;28;19973;-71
2022/04/26 04:08:51;;;;;;;;;;;;;;;10.45;68.13;97523.66;4966393;28;19941;-70
2022/04/26 04:11:28;;;;;;;;;;;;;;;10.44;68.16;97527.50;4969045;28;19930;-71
2022/04/26 04:13:57;;;;;;;;;;;;;;;10.62;67.35;97527.50;4964893;28;19926;-71
2022/04/26 04:16:47;;;;;;;;;;;;;;;10.71;67.03;97536.44;4969077;28;19937;-71
2022/04/26 04:19:21;;;;;;;;;;;;;;;10.66;67.71;97533.88;4968218;28;19926;-70
2022/04/26 04:22:38;;;;;;;;;;;;;;;10.55;67.90;97536.13;4969581;28;19988;-70
2022/04/26 04:25:08;;;;;;;;;;;;;;;10.61;67.99;97526.69;4970222;28;19926;-70
2022/04/26 04:27:35;;;;;;;;;;;;;;;10.70;67.53;97532.09;4958827;28;19970;-71
2022/04/26 04:30:05;;;;;;;;;;;;;;;10.73;67.57;97531.47;4967090;28;19926;-70
2022/04/26 04:32:34;;;;;;;;;;;;;;;10.57;68.12;97527.66;4970228;28;19930;-70
2022/04/26 04:35:02;;;;;;;;;;;;;;;10.64;67.85;97530.66;4970822;28;19926;-70
2022/04/26 04:40:26;;;;;;;;;;;;;;;10.79;67.40;97529.38;4970324;28;19933;-70
2022/04/26 04:43:19;;;;;;;;;;;;;;;10.66;68.59;97523.81;4964833;28;19930;-71
2022/04/26 04:45:52;;;;;;;;;;;;;;;10.54;68.72;97525.56;4971177;28;19926;-71
2022/04/26 04:48:20;;;;;;;;;;;;;;;10.69;68.15;97527.78;4968878;28;19942;-71
2022/04/26 04:51:23;;;;;;;;;;;;;;;10.72;68.01;97535.31;4969931;28;19930;-72
2022/04/26 04:53:51;;;;;;;;;;;;;;;10.85;67.08;97534.31;4969677;28;20333;-71
2022/04/26 04:56:31;;;;;;;;;;;;;;;10.77;67.73;97535.16;4977279;28;19926;-71
2022/04/26 04:58:59;;;;;;;;;;;;;;;10.79;67.02;97529.38;4988699;28;19930;-71
2022/04/26 05:01:28;;;;;;;;;;;;;;;10.52;67.77;97539.47;4959647;28;20396;-71
2022/04/26 05:03:56;;;;;;;;;;;;;;;10.20;68.63;97537.97;4978868;28;19934;-71
2022/04/26 05:06:36;;;;;;;;;;;;;;;9.99;69.10;97543.22;4986774;28;19926;-71
2022/04/26 05:09:05;;;;;;;;;;;;;;;10.11;69.70;97539.88;4982332;28;19972;-69
2022/04/26 05:11:38;;;;;;;;;;;;;;;10.22;69.40;97535.75;4982500;28;19972;-70
2022/04/26 05:14:07;;;;;;;;;;;;;;;10.36;68.90;97541.84;4977063;28;19981;-71
2022/04/26 05:16:37;;;;;;;;;;;;;;;10.32;69.38;97543.59;4983503;28;19965;-71
2022/04/26 05:19:04;;;;;;;;;;;;;;;10.54;68.76;97542.66;4986363;28;19957;-72
2022/04/26 05:21:36;;;;;;;;;;;;;;;10.72;67.98;97555.13;4981666;28;19933;-71
2022/04/26 05:26:50;;;;;;;;;;;;;;;10.75;67.66;97548.25;4974779;28;20263;-71
2022/04/26 05:29:18;;;;;;;;;;;;;;;10.73;68.42;97555.94;4959837;28;19926;-71
2022/04/26 05:31:47;;;;;;;;;;;;;;;10.79;68.44;97557.34;4978040;28;19929;-71
2022/04/26 05:34:15;;;;;;;;;;;;;;;10.81;68.15;97557.81;4974085;28;20020;-71
2022/04/26 05:36:43;;;;;;;;;;;;;;;10.78;67.59;97554.97;4983617;28;19937;-72
2022/04/26 05:39:11;;;;;;;;;;;;;;;10.57;68.77;97550.19;4977739;28;20032;-72
2022/04/26 05:41:44;;;;;;;;;;;;;;;10.52;68.43;97554.97;4958703;28;19927;-71
2022/04/26 05:44:12;;;;;;;;;;;;;;;10.45;69.24;97556.25;4983705;28;19937;-71
2022/04/26 05:46:39;;;;;;;;;;;;;;;10.61;69.30;97545.72;4984399;28;19976;-71
2022/04/26 05:49:09;;;;;;;;;;;;;;;10.56;69.21;97551.31;4984413;28;20024;-70
2022/04/26 05:51:36;;;;;;;;;;;;;;;10.48;69.02;97549.38;4982156;28;19941;-72
2022/04/26 05:54:04;;;;;;;;;;;;;;;10.31;69.47;97552.09;4984299;28;19933;-70
2022/04/26 05:56:32;;;;;;;;;;;;;;;10.33;69.82;97549.84;4986834;28;19933;-70
2022/04/26 05:59:00;;;;;;;;;;;;;;;10.60;69.44;97548.72;4985651;28;19976;-72
2022/04/26 06:01:27;;;;;;;;;;;;;;;10.84;68.73;97551.75;4987369;28;19926;-68
2022/04/26 06:03:55;;;;;;;;;;;;;;;10.77;68.76;97546.03;4987929;28;19937;-71
2022/04/26 06:06:28;;;;;;;;;;;;;;;10.85;69.12;97558.78;4985381;28;19965;-71
2022/04/26 06:08:56;;;;;;;;;;;;;;;10.67;69.34;97546.34;4989890;28;20053;-71
2022/04/26 06:11:30;;;;;;;;;;;;;;;10.78;69.00;97555.75;4987964;28;19934;-72
2022/04/26 06:13:58;;;;;;;;;;;;;;;10.60;69.02;97554.97;4984053;28;19926;-72
2022/04/26 06:16:28;;;;;;;;;;;;;;;10.43;69.12;97550.31;4991377;28;19983;-72
2022/04/26 06:18:56;;;;;;;;;;;;;;;10.54;69.62;97550.00;4988970;28;20329;-72
2022/04/26 06:21:29;;;;;;;;;;;;;;;10.68;69.70;97550.66;4980926;28;19930;-71
2022/04/26 06:24:02;;;;;;;;;;;;;;;10.81;69.11;97555.09;4989312;28;19934;-71
2022/04/26 06:26:30;;;;;;;;;;;;;;;10.98;68.61;97563.25;4990638;28;19930;-75
2022/04/26 06:28:58;;;;;;;;;;;;;;;10.92;68.83;97564.56;4986637;28;20343;-70
2022/04/26 06:31:26;;;;;;;;;;;;;;;10.75;69.07;97557.19;4987641;28;19973;-70
2022/04/26 06:33:54;;;;;;;;;;;;;;;10.80;68.91;97563.59;4988743;28;19926;-71
2022/04/26 06:36:47;;;;;;;;;;;;;;;10.90;68.75;97565.97;4974211;28;19999;-72
2022/04/26 06:39:17;;;;;;;;;;;;;;;10.88;69.11;97569.03;4971113;28;19927;-70
2022/04/26 06:41:45;;;;;;;;;;;;;;;11.10;68.77;97564.50;4989258;28;19936;-73
2022/04/26 06:44:15;;;;;;;;;;;;;;;10.96;69.11;97565.47;4964411;28;19934;-71
2022/04/26 06:46:43;;;;;;;;;;;;;;;11.10;69.05;97569.94;4966579;28;19930;-69
2022/04/26 06:49:11;;;;;;;;;;;;;;;11.07;68.34;97559.72;4989246;28;19930;-69
2022/04/26 06:51:41;;;;;;;;;;;;;;;10.97;68.89;97567.09;4965279;28;19930;-70
2022/04/26 06:54:08;;;;;;;;;;;;;;;11.01;68.62;97568.03;4974472;28;19980;-71
2022/04/26 06:56:40;;;;;;;;;;;;;;;11.11;68.22;97561.47;4971284;28;20394;-70
2022/04/26 06:59:08;;;;;;;;;;;;;;;11.04;68.06;97568.53;4965298;28;19941;-70
2022/04/26 07:01:36;;;;;;;;;;;;;;;11.00;68.70;97571.09;4967749;28;19937;-71
2022/04/26 07:04:31;;;;;;;;;;;;;;;10.98;68.58;97563.25;4967863;28;20459;-71
2022/04/26 07:07:00;;;;;;;;;;;;;;;11.22;67.86;97561.91;4965336;28;19933;-70
2022/04/26 07:09:28;;;;;;;;;;;;;;;11.08;68.51;97561.31;4952120;28;19930;-70
2022/04/26 07:11:57;;;;;;;;;;;;;;;11.24;68.25;97563.22;4963128;28;20629;-71
2022/04/26 07:14:25;;;;;;;;;;;;;;;11.22;68.12;97565.44;4965273;28;19926;-70
2022/04/26 07:16:53;;;;;;;;;;;;;;;11.43;68.15;97567.47;4965407;28;19926;-70
2022/04/26 07:19:46;;;;;;;;;;;;;;;11.51;67.89;97572.88;4961188;28;20457;-70
2022/04/26 07:22:42;;;;;;;;;;;;;;;11.32;68.58;97558.06;4960863;28;19938;-70
2022/04/26 07:25:11;;;;;;;;;;;;;;;11.37;68.69;97563.31;4960822;28;19926;-71
2022/04/26 07:27:40;;;;;;;;;;;;;;;11.41;68.55;97570.53;4956902;28;19935;-71
2022/04/26 07:30:09;;;;;;;;;;;;;;;11.49;68.12;97575.13;4959138;28;19953;-72
2022/04/26 07:39:04;;;;;;;;;;;;;;;11.58;68.01;97572.38;4955546;28;19969;-70
2022/04/26 07:41:33;;;;;;;;;;;;;;;11.53;67.45;97570.63;4951543;28;19926;-70
2022/04/26 07:44:03;;;;;;;;;;;;;;;11.33;68.50;97574.06;4958508;28;19926;-71
2022/04/26 07:46:31;;;;;;;;;;;;;;;11.26;68.78;97574.56;4954736;28;19926;-70
2022/04/26 07:48:59;;;;;;;;;;;;;;;11.05;69.06;97578.28;4958302;28;19926;-70
2022/04/26 07:51:27;;;;;;;;;;;;;;;11.13;69.41;97577.44;4974195;28;20000;-70
2022/04/26 07:53:55;;;;;;;;;;;;;;;11.33;69.25;97582.22;4962712;28;19931;-70
2022/04/26 07:56:23;;;;;;;;;;;;;;;11.38;68.58;97582.03;4973117;28;20446;-70
2022/04/26 07:58:52;;;;;;;;;;;;;;;11.28;68.76;97582.38;4979318;28;19926;-70
2022/04/26 08:01:22;;;;;;;;;;;;;;;11.32;68.66;97585.25;4976966;28;20006;-70
2022/04/26 08:04:15;;;;;;;;;;;;;;;11.47;68.84;97590.97;4980364;28;20012;-70
2022/04/26 08:06:44;;;;;;;;;;;;;;;11.62;68.90;97594.31;4959051;28;19936;-70
2022/04/26 08:09:11;;;;;;;;;;;;;;;11.74;68.46;97594.41;4959627;28;19981;-70
2022/04/26 08:11:40;;;;;;;;;;;;;;;11.76;68.57;97598.38;4976999;28;19926;-70
2022/04/26 08:14:08;;;;;;;;;;;;;;;11.68;68.20;97593.00;4973518;28;20240;-70
2022/04/26 08:16:37;;;;;;;;;;;;;;;11.71;68.21;97601.28;4975916;28;20313;-70
2022/04/26 08:19:05;;;;;;;;;;;;;;;11.69;68.18;97597.31;4978066;28;20024;-70
2022/04/26 08:21:38;;;;;;;;;;;;;;;11.56;68.40;97604.56;4963472;28;19925;-70
2022/04/26 08:29:38;;;;;;;;;;;;;;;11.72;69.09;97604.84;4971359;28;19930;-71
2022/04/26 08:34:59;;;;;;;;;;;;;;;11.82;68.57;97614.56;4970610;28;20385;-71
2022/04/26 08:37:53;;;;;;;;;;;;;;;11.83;68.56;97613.47;4974137;28;20007;-70
2022/04/26 08:40:21;;;;;;;;;;;;;;;11.61;69.15;97617.16;4975434;28;19930;-71
2022/04/26 08:42:51;;;;;;;;;;;;;;;11.65;69.30;97618.91;4977282;28;19933;-70
2022/04/26 08:45:20;;;;;;;;;;;;;;;11.63;69.52;97610.28;4981115;28;20021;-70
2022/04/26 08:53:27;;;;;;;;;;;;;;;11.71;69.08;97616.81;4981469;28;20284;-70
2022/04/26 08:55:56;;;;;;;;;;;;;;;11.55;70.09;97619.28;4978949;28;20300;-69
2022/04/26 08:58:25;;;;;;;;;;;;;;;11.80;69.81;97623.03;4977479;28;19930;-70
2022/04/26 09:01:19;;;;;;;;;;;;;;;11.76;69.28;97631.03;4975679;28;19996;-70
2022/04/26 09:03:59;;;;;;;;;;;;;;;11.82;69.35;97628.97;4961809;28;19933;-70
2022/04/26 09:06:36;;;;;;;;;;;;;;;11.82;70.00;97623.53;4989113;28;19925;-69
2022/04/26 09:09:12;;;;;;;;;;;;;;;11.89;69.40;97621.13;4972385;28;19934;-70
2022/04/26 09:11:40;;;;;;;;;;;;;;;11.86;69.19;97621.75;4972442;28;19930;-70
2022/04/26 09:14:08;;;;;;;;;;;;;;;11.69;69.06;97622.59;4978960;28;20008;-68
2022/04/26 09:16:37;;;;;;;;;;;;;;;11.65;69.82;97620.84;4983642;28;20317;-70
2022/04/26 09:19:07;;;;;;;;;;;;;;;11.54;70.44;97618.47;4988706;28;19956;-69
2022/04/26 09:21:35;;;;;;;;;;;;;;;11.87;69.31;97625.28;4952818;28;19997;-70
2022/04/26 09:24:03;;;;;;;;;;;;;;;11.80;69.77;97620.31;4979490;28;19926;-69
2022/04/26 09:26:35;;;;;;;;;;;;;;;11.88;68.72;97622.25;4984255;28;19945;-69
2022/04/26 09:29:04;;;;;;;;;;;;;;;11.77;69.57;97627.22;4978440;28;19985;-69
2022/04/26 09:31:32;;;;;;;;;;;;;;;11.99;68.93;97625.41;4978640;28;20288;-69
2022/04/26 09:34:04;;;;;;;;;;;;;;;11.99;68.20;97631.66;4982664;28;19934;-68
2022/04/26 09:36:43;;;;;;;;;;;;;;;11.96;68.24;97632.28;4982473;28;20304;-68
2022/04/26 09:39:12;;;;;;;;;;;;;;;11.89;68.64;97629.28;4979486;28;19930;-68
2022/04/26 09:41:40;;;;;;;;;;;;;;;11.95;68.29;97635.34;4978343;28;20006;-70
2022/04/26 09:44:08;;;;;;;;;;;;;;;11.96;68.25;97640.44;4983019;28;19976;-68
2022/04/26 09:46:46;;;;;;;;;;;;;;;11.89;67.75;97634.72;4983444;28;19933;-69
2022/04/26 09:49:15;;;;;;;;;;;;;;;11.74;66.77;97649.63;4987471;28;19932;-66
2022/04/26 09:51:44;;;;;;;;;;;;;;;11.69;66.82;97640.84;4993091;28;19953;-69
2022/04/26 09:54:12;;;;;;;;;;;;;;;11.61;67.07;97645.19;4974214;28;20118;-68
2022/04/26 09:56:46;;;;;;;;;;;;;;;11.58;66.89;97655.94;4986241;28;19932;-69
2022/04/26 09:59:16;;;;;;;;;;;;;;;11.45;66.63;97658.53;4983171;28;20012;-69
2022/04/26 10:04:39;;;;;;;;;;;;;;;11.35;68.12;97652.63;4981469;28;19929;-68
2022/04/26 10:07:10;;;;;;;;;;;;;;;11.33;67.39;97671.97;4983847;28;19926;-67
2022/04/26 10:09:38;;;;;;;;;;;;;;;11.46;67.58;97668.28;4983379;28;19930;-70
2022/04/26 10:12:06;;;;;;;;;;;;;;;11.44;66.79;97678.66;4981138;28;20341;-70
2022/04/26 10:14:35;;;;;;;;;;;;;;;11.45;66.73;97669.41;4987206;28;19933;-73
2022/04/26 10:17:03;;;;;;;;;;;;;;;11.49;67.34;97677.69;4968433;28;19933;-68
2022/04/26 10:19:39;;;;;;;;;;;;;;;11.62;67.22;97676.72;4964657;28;20331;-70
2022/04/26 10:22:50;;;;;;;;;;;;;;;11.63;66.62;97666.63;4986372;28;19952;-69
2022/04/26 10:25:21;;;;;;;;;;;;;;;11.79;67.34;97662.28;4991094;28;19932;-71
2022/04/26 10:28:04;;;;;;;;;;;;;;;11.89;66.54;97678.28;4990075;28;19940;-71
2022/04/26 10:30:48;;;;;;;;;;;;;;;12.05;65.42;97682.06;4988614;28;19952;-72
2022/04/26 10:33:33;;;;;;;;;;;;;;;12.04;65.04;97691.38;4988339;28;19930;-72
2022/04/26 10:36:16;;;;;;;;;;;;;;;12.07;65.68;97685.25;4987299;28;19925;-71
2022/04/26 10:38:47;;;;;;;;;;;;;;;11.78;65.88;97693.34;4983747;28;19957;-71
2022/04/26 10:41:17;;;;;;;;;;;;;;;11.74;66.38;97693.19;4981414;28;20012;-71
2022/04/26 10:44:01;;;;;;;;;;;;;;;11.73;66.39;97702.47;4980950;28;19932;-70
2022/04/26 10:46:28;;;;;;;;;;;;;;;11.55;66.42;97707.13;4979203;28;20013;-71
2022/04/26 10:48:57;;;;;;;;;;;;;;;11.60;66.16;97711.59;4983148;28;19932;-71
2022/04/26 10:51:34;;;;;;;;;;;;;;;11.54;66.25;97705.53;4982486;28;19930;-71
2022/04/26 10:54:02;;;;;;;;;;;;;;;11.53;67.12;97717.53;4962760;28;19941;-70
2022/04/26 10:56:31;;;;;;;;;;;;;;;11.63;66.96;97712.91;4981853;28;19933;-71
2022/04/26 10:58:59;;;;;;;;;;;;;;;11.69;67.64;97720.56;4980799;28;19934;-68
2022/04/26 11:04:23;;;;;;;;;;;;;;;11.64;66.96;97728.09;4988171;28;20299;-72
2022/04/26 11:06:51;;;;;;;;;;;;;;;11.54;65.36;97727.28;4983052;28;20301;-73
2022/04/26 11:09:19;;;;;;;;;;;;;;;11.46;65.31;97730.84;4987049;28;19933;-73
2022/04/26 11:11:49;;;;;;;;;;;;;;;11.50;64.45;97728.25;4963180;28;19926;-72
2022/04/26 11:14:47;;;;;;;;;;;;;;;11.49;65.15;97735.63;4979037;28;21998;-75
2022/04/26 11:17:15;;;;;;;;;;;;;;;11.49;65.25;97735.63;4983725;28;19934;-73
2022/04/26 11:22:44;;;;;;;;;;;;;;;11.64;64.70;97733.53;4981288;28;19952;-70
2022/04/26 11:30:52;;;;;;;;;;;;;;;11.64;63.47;97742.50;4978657;28;19926;-73
2022/04/26 11:33:22;;;;;;;;;;;;;;;11.78;64.93;97737.69;4982786;28;19938;-72
2022/04/26 11:35:51;;;;;;;;;;;;;;;11.76;63.89;97747.28;4978535;28;20301;-73
2022/04/26 11:38:22;;;;;;;;;;;;;;;11.85;64.54;97742.66;4982395;28;19930;-72
2022/04/26 11:40:51;;;;;;;;;;;;;;;11.91;63.55;97746.81;4989021;28;19929;-72
2022/04/26 11:43:45;;;;;;;;;;;;;;;12.05;64.11;97747.41;4986338;28;20395;-73
2022/04/26 11:46:14;;;;;;;;;;;;;;;12.08;64.65;97745.94;4989409;28;19980;-73
2022/04/26 11:48:42;;;;;;;;;;;;;;;11.98;63.56;97749.03;4984782;28;20577;-73
2022/04/26 11:51:10;;;;;;;;;;;;;;;11.97;63.36;97753.66;4988100;28;19976;-72
2022/04/26 11:53:39;;;;;;;;;;;;;;;11.96;64.47;97748.56;4983525;28;19941;-72
2022/04/26 11:56:07;;;;;;;;;;;;;;;11.89;64.47;97748.25;4988605;28;19929;-72
2022/04/26 11:58:35;;;;;;;;;;;;;;;11.85;64.04;97748.09;4986955;28;19929;-74
2022/04/26 12:01:07;;;;;;;;;;;;;;;11.87;65.76;97750.50;4982577;28;19998;-74
2022/04/26 12:03:43;;;;;;;;;;;;;;;11.95;65.30;97746.97;4985832;28;20351;-74
2022/04/26 12:06:15;;;;;;;;;;;;;;;12.00;65.06;97746.78;4990102;28;19950;-73
2022/04/26 12:08:44;;;;;;;;;;;;;;;12.06;65.06;97748.22;4985089;28;19940;-72
2022/04/26 12:11:15;;;;;;;;;;;;;;;12.10;65.01;97754.63;4985931;28;20729;-72
2022/04/26 12:13:43;;;;;;;;;;;;;;;12.03;64.88;97754.28;4982072;28;20296;-71
2022/04/26 12:16:17;;;;;;;;;;;;;;;12.21;64.84;97765.97;4980174;28;19965;-73
2022/04/26 12:18:51;;;;;;;;;;;;;;;12.20;63.15;97756.19;4985079;28;19936;-73
2022/04/26 12:21:19;;;;;;;;;;;;;;;12.27;64.11;97756.47;4978615;28;20026;-73
2022/04/26 12:23:47;;;;;;;;;;;;;;;12.33;63.15;97747.00;4983041;28;20399;-71
2022/04/26 12:26:16;;;;;;;;;;;;;;;12.47;64.16;97753.03;4988827;28;20575;-70
2022/04/26 12:28:48;;;;;;;;;;;;;;;12.54;62.49;97758.78;4987492;28;20395;-71
2022/04/26 12:31:23;;;;;;;;;;;;;;;12.56;60.95;97766.59;4977586;28;19937;-69
2022/04/26 12:36:52;;;;;;;;;;;;;;;12.81;60.81;97765.69;4991218;28;19936;-70
2022/04/26 12:39:20;;;;;;;;;;;;;;;12.97;60.79;97765.91;4980844;28;20332;-70
2022/04/26 12:41:48;;;;;;;;;;;;;;;13.08;60.72;97766.34;4988482;28;19926;-70
2022/04/26 12:44:17;;;;;;;;;;;;;;;13.18;60.35;97776.06;4986433;28;20408;-70
2022/04/26 12:46:45;;;;;;;;;;;;;;;13.23;57.97;97770.44;4983909;28;20462;-70
2022/04/26 12:52:18;;;;;;;;;;;;;;;13.08;58.68;97769.84;4931089;28;19931;-71
2022/04/26 12:54:54;;;;;;;;;;;;;;;12.97;58.69;97774.09;4981240;28;19936;-70
2022/04/26 12:57:22;;;;;;;;;;;;;;;12.89;58.21;97765.97;4987237;28;20032;-70
2022/04/26 12:59:53;;;;;;;;;;;;;;;12.80;59.58;97769.53;4982630;28;19926;-72
2022/04/26 13:02:23;;;;;;;;;;;;;;;12.75;59.46;97775.19;4955844;28;19930;-72
2022/04/26 13:04:53;;;;;;;;;;;;;;;12.50;60.28;97779.63;4985365;28;19996;-75
2022/04/26 13:07:21;;;;;;;;;;;;;;;12.58;60.43;97786.97;4980350;28;20290;-73
2022/04/26 13:09:49;;;;;;;;;;;;;;;12.61;59.10;97787.44;4975140;28;19929;-73
2022/04/26 13:12:17;;;;;;;;;;;;;;;12.50;60.30;97795.97;4977163;28;19930;-73
2022/04/26 13:14:45;;;;;;;;;;;;;;;12.51;59.02;97789.38;4972077;28;19926;-72
2022/04/26 13:17:21;;;;;;;;;;;;;;;12.43;59.56;97800.34;4953833;28;20640;-71
2022/04/26 13:20:13;;;;;;;;;;;;;;;12.27;59.81;97795.41;4971529;28;20017;-72
2022/04/26 13:22:44;;;;;;;;;;;;;;;12.07;60.13;97798.81;4978402;28;20025;-71
2022/04/26 13:25:12;;;;;;;;;;;;;;;11.95;60.41;97796.75;4975954;28;19938;-70
2022/04/26 13:27:40;;;;;;;;;;;;;;;11.92;60.77;97797.41;4981227;28;20044;-75
2022/04/26 13:30:08;;;;;;;;;;;;;;;12.12;60.59;97793.19;4981976;28;19926;-80
2022/04/26 13:32:36;;;;;;;;;;;;;;;12.20;59.80;97786.94;4964064;28;20011;-69
2022/04/26 13:35:06;;;;;;;;;;;;;;;12.09;59.61;97782.97;4976096;28;19925;-71
2022/04/26 13:40:27;;;;;;;;;;;;;;;12.36;60.44;97773.59;4975686;28;20383;-71
2022/04/26 13:42:57;;;;;;;;;;;;;;;12.65;60.61;97769.31;4978837;28;20400;-70
2022/04/26 13:45:25;;;;;;;;;;;;;;;12.94;60.20;97771.22;4979874;28;20339;-70
2022/04/26 13:47:53;;;;;;;;;;;;;;;12.84;59.57;97777.88;4972150;28;19926;-70
2022/04/26 13:50:21;;;;;;;;;;;;;;;12.89;59.23;97779.59;4976995;28;19930;-71
2022/04/26 13:52:49;;;;;;;;;;;;;;;12.97;58.70;97779.56;4978792;28;20335;-70
2022/04/26 13:55:18;;;;;;;;;;;;;;;12.93;58.54;97791.44;4973014;28;19980;-70
2022/04/26 13:57:47;;;;;;;;;;;;;;;13.11;58.77;97796.47;4958202;28;19942;-70
2022/04/26 14:00:16;;;;;;;;;;;;;;;13.13;58.60;97796.16;4956537;28;19972;-70
2022/04/26 14:02:48;;;;;;;;;;;;;;;12.93;57.37;97794.16;4957525;28;20340;-70
2022/04/26 14:05:23;;;;;;;;;;;;;;;13.20;57.45;97795.63;4956396;28;19940;-70
2022/04/26 14:07:52;;;;;;;;;;;;;;;13.32;59.16;97803.94;4955121;28;19927;-70
2022/04/26 14:10:20;;;;;;;;;;;;;;;13.47;57.22;97806.03;4942506;28;20344;-70
2022/04/26 14:12:49;;;;;;;;;;;;;;;13.53;57.96;97803.91;4960847;28;19968;-70
2022/04/26 14:24:12;;;;;;;;;;;;;;;13.70;56.22;97805.72;4949624;28;19926;-72
2022/04/26 14:26:42;;;;;;;;;;;;;;;13.59;55.10;97808.84;4942133;28;19982;-72
2022/04/26 14:29:12;;;;;;;;;;;;;;;13.59;55.47;97808.06;4959236;28;19931;-70
2022/04/26 14:31:47;;;;;;;;;;;;;;;13.55;56.50;97818.03;4958759;28;19997;-70
2022/04/26 14:34:15;;;;;;;;;;;;;;;13.46;56.28;97807.19;4961456;28;20419;-70
2022/04/26 14:36:43;;;;;;;;;;;;;;;13.35;56.27;97811.44;4961779;28;19985;-72
2022/04/26 14:39:26;;;;;;;;;;;;;;;13.48;56.10;97813.13;4956797;28;19974;-72
2022/04/26 14:41:54;;;;;;;;;;;;;;;13.46;56.02;97815.38;4959094;28;19926;-72
2022/04/26 14:44:24;;;;;;;;;;;;;;;13.38;56.07;97808.06;4957663;28;19933;-72
2022/04/26 14:46:51;;;;;;;;;;;;;;;13.42;55.50;97810.91;4965061;28;19934;-72
2022/04/26 14:49:19;;;;;;;;;;;;;;;13.48;55.08;97810.38;4960306;28;19926;-70
2022/04/26 14:51:48;;;;;;;;;;;;;;;13.53;54.64;97815.66;4961266;28;20368;-69
2022/04/26 14:54:16;;;;;;;;;;;;;;;13.59;54.91;97813.53;4963409;28;19926;-71
2022/04/26 14:56:44;;;;;;;;;;;;;;;13.66;54.73;97821.16;4981314;28;20376;-70
2022/04/26 14:59:15;;;;;;;;;;;;;;;13.62;54.95;97819.09;4990486;28;20384;-70
2022/04/26 15:01:46;;;;;;;;;;;;;;;13.57;55.01;97821.22;4972911;28;19938;-69
2022/04/26 15:04:14;;;;;;;;;;;;;;;13.59;56.48;97824.44;4992192;28;19925;-70
2022/04/26 15:07:07;;;;;;;;;;;;;;;13.32;55.27;97818.38;4987791;28;19933;-70
2022/04/26 15:09:42;;;;;;;;;;;;;;;13.24;55.28;97808.28;4990175;28;20369;-70
2022/04/26 15:17:43;;;;;;;;;;;;;;;13.47;53.53;97806.03;4980190;28;20359;-70
2022/04/26 15:20:17;;;;;;;;;;;;;;;13.46;55.39;97809.91;4983692;28;19926;-69
2022/04/26 15:22:46;;;;;;;;;;;;;;;13.53;54.96;97809.38;4980530;28;19991;-70
2022/04/26 15:25:16;;;;;;;;;;;;;;;13.62;53.43;97810.91;4983232;28;19932;-69
2022/04/26 15:27:44;;;;;;;;;;;;;;;13.51;54.36;97806.19;4981662;28;19930;-70
2022/04/26 15:30:12;;;;;;;;;;;;;;;13.46;55.42;97799.00;4985046;28;20216;-70
2022/04/26 15:32:40;;;;;;;;;;;;;;;13.46;55.44;97807.19;4987679;28;19932;-70
2022/04/26 15:35:10;;;;;;;;;;;;;;;13.45;54.75;97810.25;4986282;28;19929;-70
2022/04/26 15:40:30;;;;;;;;;;;;;;;13.19;53.65;97815.84;4989411;28;19930;-70
2022/04/26 15:42:59;;;;;;;;;;;;;;;13.05;55.67;97813.38;4985537;28;19940;-70
2022/04/26 15:45:26;;;;;;;;;;;;;;;13.12;55.09;97819.09;4991462;28;19926;-70
2022/04/26 15:47:54;;;;;;;;;;;;;;;13.22;54.87;97823.41;4970927;28;19977;-69
2022/04/26 15:50:23;;;;;;;;;;;;;;;13.23;55.19;97828.53;4964024;28;19934;-69
2022/04/26 15:52:52;;;;;;;;;;;;;;;13.31;55.60;97837.78;4986557;28;19934;-69
2022/04/26 15:55:21;;;;;;;;;;;;;;;13.33;55.69;97839.06;4988737;28;19972;-70
2022/04/26 15:57:49;;;;;;;;;;;;;;;13.33;56.13;97849.19;4989100;28;19957;-69
2022/04/26 16:00:18;;;;;;;;;;;;;;;13.35;55.40;97852.34;4983726;28;19933;-69
2022/04/26 16:02:45;;;;;;;;;;;;;;;13.37;56.27;97850.13;4988561;28;19926;-69
2022/04/26 16:08:07;;;;;;;;;;;;;;;13.01;55.69;97865.03;4981919;28;19934;-71
2022/04/26 16:21:37;;;;;;;;;;;;;;;12.92;57.07;97864.28;4982704;28;20541;-71
2022/04/26 16:24:07;;;;;;;;;;;;;;;13.02;56.47;97869.34;4987647;28;19934;-70
2022/04/26 16:26:35;;;;;;;;;;;;;;;13.02;56.40;97874.03;4980717;28;20086;-69
2022/04/26 16:29:05;;;;;;;;;;;;;;;13.17;56.10;97872.66;4983902;28;19926;-72
2022/04/26 16:31:33;;;;;;;;;;;;;;;13.09;54.58;97872.38;4988699;28;20297;-71
2022/04/26 16:34:01;;;;;;;;;;;;;;;13.13;54.79;97872.50;4987440;28;19973;-70
2022/04/26 16:36:29;;;;;;;;;;;;;;;13.18;54.60;97869.59;4985225;28;19930;-71
2022/04/26 16:38:58;;;;;;;;;;;;;;;13.16;54.81;97871.06;4991052;28;20375;-71
2022/04/26 16:41:28;;;;;;;;;;;;;;;13.10;55.01;97865.81;4961601;28;19933;-74
2022/04/26 16:43:55;;;;;;;;;;;;;;;13.29;56.10;97878.25;4984548;28;20390;-74
2022/04/26 16:46:25;;;;;;;;;;;;;;;13.30;54.22;97868.91;4977578;28;20393;-70
2022/04/26 16:48:54;;;;;;;;;;;;;;;13.26;54.62;97870.69;4985019;28;19929;-70
2022/04/26 16:51:46;;;;;;;;;;;;;;;13.14;55.81;97876.03;4961972;28;19926;-70
2022/04/26 16:54:18;;;;;;;;;;;;;;;13.20;54.66;97872.78;4968698;28;19941;-71
2022/04/26 16:56:47;;;;;;;;;;;;;;;13.21;55.57;97876.31;4986083;28;19934;-76
2022/04/26 16:59:17;;;;;;;;;;;;;;;13.29;54.99;97875.50;4981064;28;20453;-72
2022/04/26 17:01:45;;;;;;;;;;;;;;;13.35;53.34;97874.97;4978550;28;19927;-71
2022/04/26 17:04:13;;;;;;;;;;;;;;;13.40;54.16;97874.00;4985572;28;20447;-72
2022/04/26 17:07:06;;;;;;;;;;;;;;;13.39;53.27;97879.78;4986770;28;19926;-76
2022/04/26 17:09:34;;;;;;;;;;;;;;;13.25;54.75;97886.28;4984063;28;20364;-71
2022/04/26 17:12:04;;;;;;;;;;;;;;;13.20;54.79;97885.63;4988224;28;19933;-74
2022/04/26 17:14:35;;;;;;;;;;;;;;;13.12;54.75;97892.75;4983761;28;19953;-71
2022/04/26 17:17:04;;;;;;;;;;;;;;;13.45;54.32;97898.38;4982076;28;19953;-71
2022/04/26 17:19:32;;;;;;;;;;;;;;;13.26;55.44;97908.91;4984162;28;19933;-72
2022/04/26 17:22:01;;;;;;;;;;;;;;;13.15;56.09;97907.63;4965538;28;19926;-71
2022/04/26 17:27:17;;;;;;;;;;;;;;;12.48;58.27;97920.84;4977342;28;19930;-69
2022/04/26 17:29:45;;;;;;;;;;;;;;;12.39;59.42;97922.78;4978992;28;19998;-68
2022/04/26 17:32:14;;;;;;;;;;;;;;;12.39;59.63;97930.94;4982019;28;20363;-72
2022/04/26 17:34:42;;;;;;;;;;;;;;;11.68;59.90;97933.16;4984314;28;19981;-70
2022/04/26 17:37:11;;;;;;;;;;;;;;;11.49;60.34;97933.41;4988049;28;20017;-72
2022/04/26 17:39:40;;;;;;;;;;;;;;;11.14;61.45;97940.69;4969216;28;19936;-73
2022/04/26 17:42:08;;;;;;;;;;;;;;;11.12;63.17;97942.91;4985521;28;19926;-72
2022/04/26 17:44:39;;;;;;;;;;;;;;;11.13;62.84;97939.88;4974845;28;19933;-73
2022/04/26 17:49:59;;;;;;;;;;;;;;;10.95;65.19;97955.31;4979762;28;19926;-73
2022/04/26 17:52:27;;;;;;;;;;;;;;;10.92;65.81;97952.41;4980259;28;20339;-71
2022/04/26 17:57:42;;;;;;;;;;;;;;;10.66;66.83;97963.16;4974806;28;20024;-72
2022/04/26 18:00:34;;;;;;;;;;;;;;;10.47;67.75;97961.41;4981061;28;19934;-72
2022/04/26 18:03:04;;;;;;;;;;;;;;;10.73;68.03;97966.22;4979661;28;20387;-70
2022/04/26 18:08:25;;;;;;;;;;;;;;;10.82;65.76;97983.38;4985880;28;19960;-73
2022/04/26 18:10:54;;;;;;;;;;;;;;;10.86;67.01;97976.19;4981721;28;20434;-69
2022/04/26 18:13:21;;;;;;;;;;;;;;;10.71;65.48;97971.16;4982605;28;20033;-71
2022/04/26 18:15:54;;;;;;;;;;;;;;;10.51;66.40;97977.09;4983407;28;19930;-72
2022/04/26 18:21:17;;;;;;;;;;;;;;;10.58;67.02;97975.53;4978771;28;19926;-74
2022/04/26 18:23:45;;;;;;;;;;;;;;;10.57;66.03;97975.88;4978753;28;19926;-74